createdAt,value
2019-04-28T00:02:02.735Z,100607.83
2019-04-28T00:04:31.530Z,100615.49
2019-04-28T00:06:58.907Z,100620.22
2019-04-28T00:09:26.556Z,100612.28
2019-04-28T00:11:53.965Z,100607.77
2019-04-28T00:14:22.055Z,100613.67
2019-04-28T00:16:51.187Z,100614.50
2019-04-28T00:19:20.911Z,100610.50
2019-04-28T00:21:54.274Z,100612.61
2019-04-28T00:24:32.701Z,100615.49
2019-04-28T00:27:02.241Z,100617.11
2019-04-28T00:29:38.627Z,100624.91
2019-04-28T00:31:58.715Z,100619.52
2019-04-28T00:34:26.012Z,100618.25
2019-04-28T00:37:02.003Z,100615.86
2019-04-28T00:39:30.939Z,100621.08
2019-04-28T00:41:58.444Z,100626.94
2019-04-28T00:44:26.205Z,100618.47
2019-04-28T00:46:53.554Z,100622.75
2019-04-28T00:49:41.763Z,100624.41
2019-04-28T00:52:10.837Z,100618.16
2019-04-28T00:54:38.004Z,100619.02
2019-04-28T00:57:05.531Z,100614.19
2019-04-28T00:59:33.015Z,100617.05
2019-04-28T01:02:05.055Z,100612.33
2019-04-28T01:04:32.730Z,100616.72
2019-04-28T01:07:01.641Z,100614.08
2019-04-28T01:09:29.357Z,100615.36
2019-04-28T01:11:56.844Z,100613.58
2019-04-28T01:14:24.511Z,100622.02
2019-04-28T01:16:59.843Z,100614.19
2019-04-28T01:19:31.554Z,100619.97
2019-04-28T01:22:12.824Z,100616.44
2019-04-28T01:24:41.061Z,100610.91
2019-04-28T01:27:20.403Z,100613.83
2019-04-28T01:29:49.870Z,100610.64
2019-04-28T01:32:36.544Z,100616.28
2019-04-28T01:35:05.228Z,100608.28
2019-04-28T01:37:32.371Z,100615.91
2019-04-28T01:39:59.847Z,100609.41
2019-04-28T01:42:27.194Z,100615.98
2019-04-28T01:45:01.783Z,100621.19
2019-04-28T01:47:30.640Z,100623.46
2019-04-28T01:49:57.893Z,100621.20
2019-04-28T01:52:25.152Z,100622.23
2019-04-28T01:54:52.519Z,100615.15
2019-04-28T01:57:21.488Z,100623.41
2019-04-28T01:59:50.580Z,100618.50
2019-04-28T02:02:19.985Z,100626.12
2019-04-28T02:04:49.924Z,100625.88
2019-04-28T02:07:20.546Z,100621.93
2019-04-28T02:09:52.857Z,100625.34
2019-04-28T02:12:20.886Z,100619.96
2019-04-28T02:14:49.985Z,100620.48
2019-04-28T02:17:20.292Z,100619.75
2019-04-28T02:19:47.881Z,100619.52
2019-04-28T02:22:24.479Z,100611.88
2019-04-28T02:24:51.832Z,100618.98
2019-04-28T02:27:20.336Z,100626.97
2019-04-28T02:29:47.671Z,100622.80
2019-04-28T02:32:14.832Z,100625.08
2019-04-28T02:34:42.717Z,100623.21
2019-04-28T02:37:11.346Z,100629.64
2019-04-28T02:39:40.879Z,100626.41
2019-04-28T02:42:10.670Z,100629.84
2019-04-28T02:44:40.244Z,100632.23
2019-04-28T02:47:06.887Z,100625.89
2019-04-28T02:49:53.918Z,100622.83
2019-04-28T02:52:41.448Z,100625.03
2019-04-28T02:55:11.255Z,100627.24
2019-04-28T02:57:40.645Z,100622.25
2019-04-28T03:00:10.137Z,100623.61
2019-04-28T03:02:37.094Z,100629.75
2019-04-28T03:05:05.814Z,100629.87
2019-04-28T03:07:33.083Z,100633.13
2019-04-28T03:10:03.473Z,100628.08
2019-04-28T03:12:31.435Z,100628.40
2019-04-28T03:15:00.613Z,100628.52
2019-04-28T03:17:30.992Z,100625.14
2019-04-28T03:19:57.654Z,100628.00
2019-04-28T03:22:25.142Z,100630.41
2019-04-28T03:24:54.321Z,100626.52
2019-04-28T03:27:35.043Z,100632.78
2019-04-28T03:30:13.259Z,100626.86
2019-04-28T03:32:53.071Z,100634.27
2019-04-28T03:35:13.627Z,100635.84
2019-04-28T03:37:41.448Z,100632.48
2019-04-28T03:40:10.875Z,100637.52
2019-04-28T03:42:40.955Z,100636.99
2019-04-28T03:45:15.378Z,100636.99
2019-04-28T03:47:42.649Z,100649.44
2019-04-28T03:50:10.616Z,100632.17
2019-04-28T03:52:37.869Z,100644.94
2019-04-28T03:55:05.329Z,100636.56
2019-04-28T03:57:32.828Z,100633.02
2019-04-28T04:00:01.445Z,100635.42
2019-04-28T04:02:31.196Z,100640.98
2019-04-28T04:05:00.780Z,100641.47
2019-04-28T04:07:27.435Z,100643.05
2019-04-28T04:10:11.329Z,100644.53
2019-04-28T04:12:47.343Z,100648.17
2019-04-28T04:15:46.737Z,100649.30
2019-04-28T04:18:20.723Z,100650.05
2019-04-28T04:20:47.848Z,100649.30
2019-04-28T04:23:15.245Z,100649.22
2019-04-28T04:25:42.623Z,100653.27
2019-04-28T04:28:10.551Z,100649.30
2019-04-28T04:30:40.609Z,100651.40
2019-04-28T04:33:07.365Z,100655.78
2019-04-28T04:35:34.705Z,100660.30
2019-04-28T04:38:02.202Z,100657.58
2019-04-28T04:40:31.737Z,100665.41
2019-04-28T04:43:01.265Z,100670.91
2019-04-28T04:45:30.400Z,100680.14
2019-04-28T04:47:57.117Z,100679.52
2019-04-28T04:50:24.388Z,100678.23
2019-04-28T04:52:51.650Z,100689.74
2019-04-28T04:55:21.156Z,100680.53
2019-04-28T04:57:50.614Z,100687.94
2019-04-28T05:00:30.659Z,100690.12
2019-04-28T05:03:10.474Z,100687.83
2019-04-28T05:05:40.373Z,100694.62
2019-04-28T05:08:07.677Z,100697.06
2019-04-28T05:10:34.933Z,100698.09
2019-04-28T05:13:02.191Z,100704.86
2019-04-28T05:15:30.382Z,100703.52
2019-04-28T05:17:57.934Z,100710.31
2019-04-28T05:20:25.300Z,100706.14
2019-04-28T05:23:02.798Z,100706.04
2019-04-28T05:25:35.186Z,100705.97
2019-04-28T05:28:03.131Z,100706.80
2019-04-28T05:30:30.355Z,100711.42
2019-04-28T05:32:57.550Z,100703.80
2019-04-28T05:35:25.230Z,100706.52
2019-04-28T05:37:52.430Z,100713.95
2019-04-28T05:40:20.581Z,100719.47
2019-04-28T05:43:01.058Z,100716.67
2019-04-28T05:45:31.901Z,100716.55
2019-04-28T05:47:59.782Z,100717.89
2019-04-28T05:50:50.119Z,100723.81
2019-04-28T05:53:27.070Z,100729.23
2019-04-28T05:56:10.282Z,100729.10
2019-04-28T05:58:50.445Z,100725.45
2019-04-28T06:01:40.696Z,100726.50
2019-04-28T06:04:09.591Z,100730.14
2019-04-28T06:06:40.554Z,100731.31
2019-04-28T06:09:26.591Z,100734.42
2019-04-28T06:11:54.632Z,100727.24
2019-04-28T06:14:22.019Z,100736.59
2019-04-28T06:16:50.656Z,100728.33
2019-04-28T06:19:17.904Z,100733.68
2019-04-28T06:21:45.170Z,100728.00
2019-04-28T06:24:12.429Z,100731.67
2019-04-28T06:26:39.602Z,100731.64
2019-04-28T06:29:07.058Z,100727.02
2019-04-28T06:31:34.475Z,100726.26
2019-04-28T06:34:01.881Z,100733.78
2019-04-28T06:36:29.127Z,100737.48
2019-04-28T06:38:56.386Z,100736.95
2019-04-28T06:41:23.651Z,100744.26
2019-04-28T06:43:51.019Z,100742.20
2019-04-28T06:46:18.292Z,100745.69
2019-04-28T06:48:45.557Z,100746.67
2019-04-28T06:51:13.114Z,100749.84
2019-04-28T06:53:40.448Z,100749.77
2019-04-28T06:56:07.680Z,100756.16
2019-04-28T06:58:34.982Z,100754.12
2019-04-28T07:01:02.659Z,100756.16
2019-04-28T07:03:29.802Z,100762.19
2019-04-28T07:05:57.064Z,100764.83
2019-04-28T07:08:24.213Z,100763.66
2019-04-28T07:10:51.715Z,100764.34
2019-04-28T07:13:20.670Z,100765.75
2019-04-28T07:15:48.309Z,100767.76
2019-04-28T07:18:15.556Z,100762.23
2019-04-28T07:20:52.711Z,100772.66
2019-04-28T07:23:20.093Z,100759.49
2019-04-28T07:25:47.241Z,100767.17
2019-04-28T07:28:14.500Z,100762.39
2019-04-28T07:30:41.883Z,100763.16
2019-04-28T07:33:09.694Z,100763.27
2019-04-28T07:35:36.869Z,100760.38
2019-04-28T07:38:04.391Z,100760.64
2019-04-28T07:40:32.093Z,100769.08
2019-04-28T07:42:59.469Z,100768.02
2019-04-28T07:45:26.771Z,100763.41
2019-04-28T07:47:54.141Z,100771.95
2019-04-28T07:50:23.089Z,100777.29
2019-04-28T07:53:12.695Z,100775.71
2019-04-28T07:55:39.858Z,100783.33
2019-04-28T07:58:07.227Z,100787.09
2019-04-28T08:00:34.695Z,100781.19
2019-04-28T08:03:01.993Z,100786.16
2019-04-28T08:05:29.257Z,100792.11
2019-04-28T08:07:56.646Z,100793.40
2019-04-28T08:10:24.124Z,100785.80
2019-04-28T08:12:51.303Z,100786.47
2019-04-28T08:15:18.790Z,100783.19
2019-04-28T08:17:45.943Z,100792.30
2019-04-28T08:20:14.314Z,100787.13
2019-04-28T08:22:41.581Z,100789.23
2019-04-28T08:25:10.835Z,100791.06
2019-04-28T08:27:38.242Z,100794.09
2019-04-28T08:30:06.429Z,100796.13
2019-04-28T08:32:43.308Z,100792.85
2019-04-28T08:35:11.361Z,100797.04
2019-04-28T08:37:38.790Z,100793.52
2019-04-28T08:40:06.451Z,100794.34
2019-04-28T08:42:33.847Z,100800.45
2019-04-28T08:45:01.104Z,100793.76
2019-04-28T08:47:28.465Z,100793.67
2019-04-28T08:49:55.809Z,100795.95
2019-04-28T08:52:23.313Z,100795.55
2019-04-28T08:54:50.579Z,100800.09
2019-04-28T08:57:17.985Z,100799.87
2019-04-28T08:59:45.290Z,100806.59
2019-04-28T09:02:12.666Z,100803.89
2019-04-28T09:04:39.892Z,100800.13
2019-04-28T09:07:07.232Z,100811.15
2019-04-28T09:09:34.640Z,100808.06
2019-04-28T09:12:02.021Z,100811.47
2019-04-28T09:14:29.411Z,100814.27
2019-04-28T09:16:56.805Z,100812.30
2019-04-28T09:19:23.967Z,100812.55
2019-04-28T09:21:51.251Z,100813.67
2019-04-28T09:24:18.699Z,100811.75
2019-04-28T09:26:45.954Z,100810.70
2019-04-28T09:29:13.118Z,100815.11
2019-04-28T09:31:40.403Z,100819.28
2019-04-28T09:34:07.775Z,100811.56
2019-04-28T09:36:35.156Z,100811.89
2019-04-28T09:39:05.575Z,100811.97
2019-04-28T09:41:33.761Z,100811.47
2019-04-28T09:44:07.193Z,100807.89
2019-04-28T09:46:36.917Z,100819.27
2019-04-28T09:49:04.424Z,100818.38
2019-04-28T09:51:31.898Z,100814.33
2019-04-28T09:53:59.057Z,100813.01
2019-04-28T09:56:26.553Z,100810.39
2019-04-28T09:58:53.933Z,100816.84
2019-04-28T10:01:21.733Z,100813.50
2019-04-28T10:03:49.074Z,100800.50
2019-04-28T10:06:16.434Z,100804.91
2019-04-28T10:08:43.659Z,100803.48
2019-04-28T10:11:10.950Z,100801.66
2019-04-28T10:13:38.158Z,100800.27
2019-04-28T10:16:05.635Z,100793.11
2019-04-28T10:18:33.003Z,100800.08
2019-04-28T10:21:13.437Z,100792.01
2019-04-28T10:23:41.239Z,100789.07
2019-04-28T10:26:08.690Z,100784.69
2019-04-28T10:28:36.124Z,100783.15
2019-04-28T10:31:05.643Z,100776.30
2019-04-28T10:33:33.151Z,100774.82
2019-04-28T10:36:00.564Z,100776.70
2019-04-28T10:38:28.050Z,100772.16
2019-04-28T10:41:00.855Z,100775.20
2019-04-28T10:43:28.346Z,100764.62
2019-04-28T10:45:56.014Z,100766.37
2019-04-28T10:48:23.378Z,100759.20
2019-04-28T10:50:50.589Z,100760.48
2019-04-28T10:53:17.883Z,100754.29
2019-04-28T10:55:45.360Z,100754.04
2019-04-28T10:58:12.860Z,100751.95
2019-04-28T11:00:41.043Z,100753.37
2019-04-28T11:03:22.834Z,100754.67
2019-04-28T11:05:50.409Z,100747.88
2019-04-28T11:08:25.459Z,100757.64
2019-04-28T11:10:53.294Z,100762.05
2019-04-28T11:13:20.981Z,100760.88
2019-04-28T11:15:48.308Z,100764.36
2019-04-28T11:18:16.029Z,100763.73
2019-04-28T11:20:46.550Z,100766.31
2019-04-28T11:23:13.846Z,100767.70
2019-04-28T11:25:41.240Z,100780.52
2019-04-28T11:28:08.998Z,100782.45
2019-04-28T11:30:36.480Z,100779.73
2019-04-28T11:33:26.322Z,100775.48
2019-04-28T11:35:53.618Z,100783.88
2019-04-28T11:38:21.010Z,100782.53
2019-04-28T11:40:48.391Z,100786.66
2019-04-28T11:43:17.090Z,100785.55
2019-04-28T11:45:48.047Z,100781.09
2019-04-28T11:48:15.403Z,100774.39
2019-04-28T11:50:42.654Z,100777.70
2019-04-28T11:53:09.918Z,100768.61
2019-04-28T11:55:37.508Z,100772.00
2019-04-28T11:58:05.450Z,100770.25
2019-04-28T12:00:33.720Z,100766.23
2019-04-28T12:03:01.392Z,100775.75
2019-04-28T12:05:46.401Z,100775.10
2019-04-28T12:08:13.814Z,100775.02
2019-04-28T12:10:47.044Z,100775.04
2019-04-28T12:13:34.331Z,100777.60
2019-04-28T12:16:24.681Z,100773.73
2019-04-28T12:20:41.283Z,100772.22
2019-04-28T12:23:09.847Z,100773.98
2019-04-28T12:25:37.377Z,100768.45
2019-04-28T12:28:04.760Z,100766.17
2019-04-28T12:30:32.256Z,100762.55
2019-04-28T12:32:59.499Z,100764.56
2019-04-28T12:35:26.886Z,100760.38
2019-04-28T12:37:54.293Z,100762.45
2019-04-28T12:40:22.661Z,100757.88
2019-04-28T12:42:49.977Z,100762.34
2019-04-28T12:45:17.282Z,100759.84
2019-04-28T12:47:44.603Z,100760.66
2019-04-28T12:50:18.819Z,100761.19
2019-04-28T12:52:46.116Z,100755.86
2019-04-28T12:55:13.396Z,100748.93
2019-04-28T12:57:40.666Z,100757.47
2019-04-28T13:00:31.723Z,100751.16
2019-04-28T13:03:15.109Z,100754.12
2019-04-28T13:05:44.232Z,100755.19
2019-04-28T13:08:11.642Z,100751.57
2019-04-28T13:10:38.863Z,100748.68
2019-04-28T13:13:06.466Z,100749.05
2019-04-28T13:15:33.916Z,100744.56
2019-04-28T13:18:01.294Z,100743.53
2019-04-28T13:20:28.616Z,100746.25
2019-04-28T13:22:56.030Z,100745.61
2019-04-28T13:25:23.501Z,100743.34
2019-04-28T13:27:50.748Z,100736.15
2019-04-28T13:30:18.519Z,100740.25
2019-04-28T13:32:45.854Z,100731.16
2019-04-28T13:35:14.516Z,100735.37
2019-04-28T13:37:41.857Z,100737.63
2019-04-28T13:40:15.378Z,100733.73
2019-04-28T13:42:42.803Z,100729.05
2019-04-28T13:45:14.966Z,100732.67
2019-04-28T13:47:42.130Z,100724.56
2019-04-28T13:50:16.190Z,100720.72
2019-04-28T13:52:45.108Z,100715.16
2019-04-28T13:55:37.428Z,100721.30
2019-04-28T13:58:04.834Z,100722.13
2019-04-28T14:00:47.235Z,100722.16
2019-04-28T14:03:25.115Z,100722.19
2019-04-28T14:06:00.592Z,100720.52
2019-04-28T14:08:27.866Z,100718.35
2019-04-28T14:10:57.000Z,100723.33
2019-04-28T14:13:24.471Z,100719.18
2019-04-28T14:15:52.301Z,100718.06
2019-04-28T14:18:20.257Z,100716.98
2019-04-28T14:20:47.824Z,100706.76
2019-04-28T14:23:17.885Z,100707.86
2019-04-28T14:25:45.893Z,100705.37
2019-04-28T14:28:20.070Z,100710.63
2019-04-28T14:30:47.422Z,100707.88
2019-04-28T14:33:16.485Z,100704.29
2019-04-28T14:35:43.736Z,100696.81
2019-04-28T14:38:11.201Z,100702.91
2019-04-28T14:40:40.303Z,100704.78
2019-04-28T14:43:07.643Z,100710.33
2019-04-28T14:45:35.017Z,100716.08
2019-04-28T14:48:02.686Z,100711.44
2019-04-28T14:50:30.537Z,100711.99
2019-04-28T14:52:57.696Z,100710.54
2019-04-28T14:55:24.903Z,100708.04
2019-04-28T14:57:52.781Z,100704.41
2019-04-28T15:00:24.599Z,100693.95
2019-04-28T15:02:59.444Z,100697.80
2019-04-28T15:05:39.276Z,100696.36
2019-04-28T15:08:25.247Z,100700.78
2019-04-28T15:11:21.233Z,100697.77
2019-04-28T15:13:48.518Z,100695.81
2019-04-28T15:16:16.066Z,100698.06
2019-04-28T15:18:47.453Z,100696.70
2019-04-28T15:21:14.847Z,100697.49
2019-04-28T15:23:42.172Z,100703.02
2019-04-28T15:26:09.420Z,100702.44
2019-04-28T15:28:36.760Z,100700.52
2019-04-28T15:31:04.160Z,100699.69
2019-04-28T15:33:31.491Z,100697.19
2019-04-28T15:35:58.889Z,100699.73
2019-04-28T15:38:26.400Z,100699.77
2019-04-28T15:40:53.825Z,100697.86
2019-04-28T15:43:21.131Z,100693.98
2019-04-28T15:45:48.574Z,100697.86
2019-04-28T15:48:16.113Z,100704.20
2019-04-28T15:50:43.613Z,100691.78
2019-04-28T15:53:10.952Z,100694.31
2019-04-28T15:55:47.814Z,100694.29
2019-04-28T15:58:33.508Z,100702.58
2019-04-28T16:01:01.571Z,100702.06
2019-04-28T16:03:29.135Z,100700.13
2019-04-28T16:05:59.779Z,100700.95
2019-04-28T16:08:26.329Z,100701.17
2019-04-28T16:10:54.112Z,100706.77
2019-04-28T16:13:21.864Z,100704.28
2019-04-28T16:15:49.624Z,100714.24
2019-04-28T16:18:17.208Z,100711.20
2019-04-28T16:20:44.729Z,100709.80
2019-04-28T16:23:12.005Z,100712.02
2019-04-28T16:25:40.412Z,100716.91
2019-04-28T16:28:07.849Z,100717.20
2019-04-28T16:30:35.378Z,100720.50
2019-04-28T16:33:02.931Z,100719.95
2019-04-28T16:35:30.409Z,100727.53
2019-04-28T16:37:57.907Z,100726.50
2019-04-28T16:40:39.252Z,100734.81
2019-04-28T16:43:20.482Z,100733.96
2019-04-28T16:45:47.638Z,100730.62
2019-04-28T16:48:14.938Z,100734.16
2019-04-28T16:50:42.181Z,100739.02
2019-04-28T16:53:09.511Z,100740.92
2019-04-28T16:55:57.597Z,100743.64
2019-04-28T16:58:37.272Z,100735.95
2019-04-28T17:01:24.704Z,100743.61
2019-04-28T17:03:52.482Z,100746.69
2019-04-28T17:06:20.285Z,100743.71
2019-04-28T17:08:47.929Z,100746.19
2019-04-28T17:11:15.603Z,100745.05
2019-04-28T17:13:43.344Z,100745.27
2019-04-28T17:16:11.119Z,100756.30
2019-04-28T17:18:38.671Z,100754.05
2019-04-28T17:21:06.743Z,100752.65
2019-04-28T17:23:34.106Z,100759.22
2019-04-28T17:26:01.898Z,100757.23
2019-04-28T17:28:29.649Z,100763.23
2019-04-28T17:30:57.122Z,100767.64
2019-04-28T17:33:24.626Z,100768.41
2019-04-28T17:35:51.933Z,100766.47
2019-04-28T17:38:19.391Z,100763.09
2019-04-28T17:40:47.207Z,100764.41
2019-04-28T17:43:14.837Z,100765.31
2019-04-28T17:45:42.315Z,100767.24
2019-04-28T17:48:22.268Z,100770.41
2019-04-28T17:50:51.282Z,100774.88
2019-04-28T17:53:25.655Z,100776.13
2019-04-28T17:55:54.690Z,100777.55
2019-04-28T17:58:22.348Z,100783.60
2019-04-28T18:01:21.545Z,100783.55
2019-04-28T18:04:17.455Z,100789.89
2019-04-28T18:06:49.840Z,100792.23
2019-04-28T18:09:18.321Z,100791.80
2019-04-28T18:11:46.319Z,100798.95
2019-04-28T18:14:14.897Z,100793.17
2019-04-28T18:17:11.121Z,100799.69
2019-04-28T18:19:42.122Z,100797.31
2019-04-28T18:22:09.923Z,100805.16
2019-04-28T18:24:40.006Z,100814.26
2019-04-28T18:27:07.508Z,100811.95
2019-04-28T18:29:35.288Z,100819.31
2019-04-28T18:32:34.560Z,100827.52
2019-04-28T18:35:08.725Z,100828.14
2019-04-28T18:37:56.100Z,100831.23
2019-04-28T18:40:45.773Z,100835.12
2019-04-28T18:43:21.012Z,100838.64
2019-04-28T18:45:48.706Z,100848.69
2019-04-28T18:48:16.442Z,100851.05
2019-04-28T18:50:44.017Z,100855.77
2019-04-28T18:53:11.772Z,100865.13
2019-04-28T18:55:39.445Z,100866.16
2019-04-28T18:58:07.624Z,100866.55
2019-04-28T19:00:43.281Z,100870.24
2019-04-28T19:03:11.147Z,100875.09
2019-04-28T19:05:42.090Z,100880.44
2019-04-28T19:08:32.721Z,100880.87
2019-04-28T19:11:22.890Z,100891.16
2019-04-28T19:13:55.833Z,100889.88
2019-04-28T19:16:49.123Z,100897.41
2019-04-28T19:19:17.999Z,100895.88
2019-04-28T19:21:56.412Z,100892.98
2019-04-28T19:24:25.337Z,100891.02
2019-04-28T19:26:53.175Z,100892.64
2019-04-28T19:29:21.468Z,100890.73
2019-04-28T19:31:49.440Z,100895.95
2019-04-28T19:34:17.230Z,100897.17
2019-04-28T19:36:45.148Z,100897.77
2019-04-28T19:39:12.955Z,100899.64
2019-04-28T19:41:40.817Z,100894.55
2019-04-28T19:44:08.604Z,100902.20
2019-04-28T19:46:36.397Z,100903.14
2019-04-28T19:49:04.550Z,100906.52
2019-04-28T19:51:32.628Z,100904.36
2019-04-28T19:54:00.709Z,100913.55
2019-04-28T19:56:36.941Z,100911.84
2019-04-28T19:59:12.814Z,100916.48
2019-04-28T20:01:40.826Z,100918.19
2019-04-28T20:04:08.376Z,100922.20
2019-04-28T20:06:36.126Z,100919.35
2019-04-28T20:09:05.865Z,100930.69
2019-04-28T20:11:33.806Z,100933.19
2019-04-28T20:14:01.233Z,100934.52
2019-04-28T20:16:28.669Z,100936.72
2019-04-28T20:18:56.190Z,100937.87
2019-04-28T20:21:23.762Z,100942.66
2019-04-28T20:23:51.222Z,100946.38
2019-04-28T20:26:18.651Z,100950.62
2019-04-28T20:28:45.967Z,100951.69
2019-04-28T20:31:13.269Z,100955.22
2019-04-28T20:33:40.985Z,100954.09
2019-04-28T20:36:15.072Z,100960.62
2019-04-28T20:38:43.234Z,100965.42
2019-04-28T20:41:22.397Z,100971.05
2019-04-28T20:43:49.791Z,100965.87
2019-04-28T20:46:17.198Z,100977.39
2019-04-28T20:48:49.396Z,100973.08
2019-04-28T20:51:17.332Z,100973.30
2019-04-28T20:53:44.606Z,100974.73
2019-04-28T20:56:11.884Z,100980.31
2019-04-28T20:58:39.037Z,100982.11
2019-04-28T21:01:06.341Z,100977.66
2019-04-28T21:03:33.637Z,100979.87
2019-04-28T21:06:00.931Z,100979.12
2019-04-28T21:08:28.326Z,100979.12
2019-04-28T21:10:55.635Z,100984.62
2019-04-28T21:13:22.935Z,100980.38
2019-04-28T21:15:50.118Z,100977.13
2019-04-28T21:18:17.384Z,100974.84
2019-04-28T21:20:44.668Z,100973.81
2019-04-28T21:23:12.056Z,100973.06
2019-04-28T21:25:39.337Z,100976.20
2019-04-28T21:28:06.792Z,100977.77
2019-04-28T21:30:39.453Z,100973.80
2019-04-28T21:33:06.869Z,100980.33
2019-04-28T21:35:33.960Z,100983.17
2019-04-28T21:38:01.311Z,100984.95
2019-04-28T21:40:28.907Z,100987.27
2019-04-28T21:43:05.620Z,100988.73
2019-04-28T21:46:01.543Z,100994.49
2019-04-28T21:48:35.797Z,100993.04
2019-04-28T21:51:03.386Z,100986.44
2019-04-28T21:53:34.047Z,100992.06
2019-04-28T21:56:01.408Z,100992.78
2019-04-28T21:58:33.477Z,100991.41
2019-04-28T22:00:58.189Z,100997.22
2019-04-28T22:03:25.571Z,100997.43
2019-04-28T22:05:52.918Z,101000.78
2019-04-28T22:08:20.186Z,101003.41
2019-04-28T22:10:47.553Z,101002.32
2019-04-28T22:13:14.928Z,101007.38
2019-04-28T22:15:42.123Z,101004.18
2019-04-28T22:18:09.618Z,101012.02
2019-04-28T22:20:36.833Z,101013.48
2019-04-28T22:23:18.048Z,101018.94
2019-04-28T22:25:36.058Z,101021.05
2019-04-28T22:28:03.427Z,101024.49
2019-04-28T22:30:30.798Z,101023.19
2019-04-28T22:32:58.003Z,101024.27
2019-04-28T22:35:25.473Z,101034.23
2019-04-28T22:37:52.742Z,101041.20
2019-04-28T22:40:20.129Z,101045.80
2019-04-28T22:42:47.542Z,101039.44
2019-04-28T22:45:15.261Z,101044.16
2019-04-28T22:47:42.646Z,101045.23
2019-04-28T22:50:33.749Z,101052.04
2019-04-28T22:53:01.238Z,101049.91
2019-04-28T22:55:30.040Z,101058.91
2019-04-28T22:58:32.310Z,101060.86
2019-04-28T23:01:05.558Z,101064.59
2019-04-28T23:03:47.478Z,101068.08
2019-04-28T23:06:15.052Z,101071.55
2019-04-28T23:08:42.341Z,101071.88
2019-04-28T23:11:09.697Z,101073.95
2019-04-28T23:13:37.128Z,101064.97
2019-04-28T23:16:04.631Z,101067.02
2019-04-28T23:18:32.020Z,101066.28
2019-04-28T23:21:02.857Z,101063.78
2019-04-28T23:23:30.612Z,101064.83
2019-04-28T23:25:57.742Z,101068.84
2019-04-28T23:28:25.024Z,101067.11
2019-04-28T23:30:52.187Z,101073.00
2019-04-28T23:33:19.549Z,101077.96
2019-04-28T23:35:46.919Z,101082.23
2019-04-28T23:38:14.080Z,101083.06
2019-04-28T23:40:57.098Z,101077.16
2019-04-28T23:43:24.512Z,101084.37
2019-04-28T23:45:51.684Z,101076.96
2019-04-28T23:48:18.963Z,101078.56
2019-04-28T23:51:00.964Z,101083.86
2019-04-28T23:53:46.333Z,101085.17
2019-04-28T23:56:13.920Z,101083.02
2019-04-28T23:58:41.117Z,101086.77
